createdAt,value
2022-08-17T00:02:27.551Z,44.04
2022-08-17T00:05:00.709Z,44.04
2022-08-17T00:07:35.400Z,44.10
2022-08-17T00:10:06.897Z,44.13
2022-08-17T00:12:44.666Z,44.12
2022-08-17T00:15:22.107Z,44.09
2022-08-17T00:17:58.801Z,44.30
2022-08-17T00:20:35.678Z,44.31
2022-08-17T00:23:13.456Z,44.39
2022-08-17T00:25:52.075Z,44.47
2022-08-17T00:28:29.126Z,44.55
2022-08-17T00:31:07.774Z,44.53
2022-08-17T00:33:46.927Z,44.69
2022-08-17T00:36:18.784Z,44.86
2022-08-17T00:38:51.485Z,44.79
2022-08-17T00:41:25.471Z,44.96
2022-08-17T00:44:01.385Z,44.93
2022-08-17T00:46:34.198Z,45.20
2022-08-17T00:49:10.541Z,45.26
2022-08-17T00:51:45.577Z,45.55
2022-08-17T00:54:18.683Z,45.44
2022-08-17T00:56:53.758Z,45.60
2022-08-17T00:59:25.252Z,45.46
2022-08-17T01:02:01.191Z,45.72
2022-08-17T01:04:32.529Z,45.75
2022-08-17T01:07:05.867Z,45.81
2022-08-17T01:09:37.161Z,45.93
2022-08-17T01:12:13.457Z,45.97
2022-08-17T01:14:53.519Z,46.03
2022-08-17T01:17:25.217Z,45.98
2022-08-17T01:20:00.297Z,46.11
2022-08-17T01:22:32.418Z,46.17
2022-08-17T01:25:05.288Z,46.46
2022-08-17T01:27:38.861Z,46.43
2022-08-17T01:30:58.198Z,46.64
2022-08-17T01:33:15.237Z,46.56
2022-08-17T01:35:53.235Z,46.53
2022-08-17T01:38:31.693Z,46.80
2022-08-17T01:41:05.880Z,46.83
2022-08-17T01:43:44.071Z,46.97
2022-08-17T01:46:18.589Z,46.84
2022-08-17T01:48:52.619Z,46.83
2022-08-17T01:51:26.167Z,46.93
2022-08-17T01:54:01.379Z,47.00
2022-08-17T01:56:35.447Z,47.42
2022-08-17T01:59:13.473Z,47.21
2022-08-17T02:01:48.338Z,47.38
2022-08-17T02:04:20.459Z,47.60
2022-08-17T02:06:56.715Z,47.54
2022-08-17T02:09:36.922Z,47.75
2022-08-17T02:12:38.154Z,47.69
2022-08-17T02:15:06.298Z,47.76
2022-08-17T02:17:42.716Z,48.30
2022-08-17T02:20:13.765Z,48.38
2022-08-17T02:22:47.389Z,48.16
2022-08-17T02:25:23.186Z,48.40
2022-08-17T02:27:55.317Z,48.32
2022-08-17T02:30:59.933Z,48.52
2022-08-17T02:33:23.150Z,48.53
2022-08-17T02:36:15.665Z,48.64
2022-08-17T02:38:50.944Z,48.56
2022-08-17T02:41:27.912Z,48.69
2022-08-17T02:44:00.917Z,48.62
2022-08-17T02:46:39.225Z,48.88
2022-08-17T02:49:16.996Z,48.83
2022-08-17T02:51:51.989Z,48.88
2022-08-17T02:54:41.042Z,49.06
2022-08-17T02:57:13.029Z,49.03
2022-08-17T02:59:49.079Z,48.79
2022-08-17T03:02:25.403Z,49.05
2022-08-17T03:05:07.160Z,49.16
2022-08-17T03:07:46.568Z,49.46
2022-08-17T03:10:19.781Z,49.40
2022-08-17T03:12:53.606Z,49.40
2022-08-17T03:15:26.387Z,49.39
2022-08-17T03:17:57.592Z,49.52
2022-08-17T03:20:42.397Z,49.56
2022-08-17T03:23:19.106Z,49.61
2022-08-17T03:26:15.228Z,49.49
2022-08-17T03:28:52.707Z,49.65
2022-08-17T03:31:26.383Z,49.79
2022-08-17T03:33:58.873Z,49.72
2022-08-17T03:36:37.760Z,49.83
2022-08-17T03:39:12.723Z,50.05
2022-08-17T03:41:46.156Z,49.95
2022-08-17T03:44:25.493Z,50.28
2022-08-17T03:47:16.549Z,50.13
2022-08-17T03:50:06.796Z,50.08
2022-08-17T03:53:00.919Z,50.39
2022-08-17T03:55:54.307Z,50.28
2022-08-17T03:58:28.557Z,50.16
2022-08-17T04:01:02.957Z,50.29
2022-08-17T04:03:33.961Z,50.64
2022-08-17T04:06:11.710Z,50.75
2022-08-17T04:08:52.752Z,50.76
2022-08-17T04:11:27.855Z,50.71
2022-08-17T04:14:05.980Z,50.95
2022-08-17T04:16:36.884Z,50.82
2022-08-17T04:19:11.277Z,50.85
2022-08-17T04:21:45.762Z,50.69
2022-08-17T04:24:21.731Z,50.84
2022-08-17T04:26:56.405Z,50.44
2022-08-17T04:29:54.116Z,50.46
2022-08-17T04:33:03.903Z,50.55
2022-08-17T04:35:23.438Z,50.59
2022-08-17T04:37:59.268Z,50.45
2022-08-17T04:40:54.862Z,50.58
2022-08-17T04:43:32.273Z,50.81
2022-08-17T04:46:07.392Z,50.84
2022-08-17T04:48:41.603Z,50.54
2022-08-17T04:51:18.347Z,50.50
2022-08-17T04:53:54.346Z,50.97
2022-08-17T04:56:31.508Z,50.65
2022-08-17T04:59:04.238Z,50.92
2022-08-17T05:01:44.266Z,50.73
2022-08-17T05:04:34.090Z,50.83
2022-08-17T05:07:21.133Z,50.80
2022-08-17T05:09:58.079Z,50.74
2022-08-17T05:12:34.091Z,50.70
2022-08-17T05:15:11.154Z,50.77
2022-08-17T05:17:48.237Z,50.83
2022-08-17T05:20:19.462Z,50.99
2022-08-17T05:22:57.773Z,51.11
2022-08-17T05:25:32.810Z,50.94
2022-08-17T05:28:11.025Z,50.99
2022-08-17T05:30:42.359Z,50.77
2022-08-17T05:33:20.388Z,50.85
2022-08-17T05:35:52.263Z,50.64
2022-08-17T05:38:29.679Z,50.45
2022-08-17T05:41:06.735Z,50.36
2022-08-17T05:43:41.381Z,50.18
2022-08-17T05:46:20.676Z,50.24
2022-08-17T05:48:56.002Z,50.27
2022-08-17T05:51:34.720Z,50.16
2022-08-17T05:54:14.461Z,50.03
2022-08-17T05:56:54.461Z,50.14
2022-08-17T05:59:29.298Z,50.19
2022-08-17T06:02:07.164Z,50.28
2022-08-17T06:04:45.425Z,50.33
2022-08-17T06:07:22.344Z,50.19
2022-08-17T06:10:00.620Z,50.22
2022-08-17T06:12:40.188Z,50.30
2022-08-17T06:15:19.640Z,50.08
2022-08-17T06:17:53.805Z,50.20
2022-08-17T06:20:28.987Z,49.99
2022-08-17T06:23:05.229Z,49.96
2022-08-17T06:25:36.565Z,49.76
2022-08-17T06:28:13.898Z,49.69
2022-08-17T06:30:59.467Z,49.43
2022-08-17T06:33:35.424Z,49.34
2022-08-17T06:36:18.202Z,49.21
2022-08-17T06:38:51.709Z,49.29
2022-08-17T06:41:36.499Z,49.22
2022-08-17T06:44:11.721Z,49.07
2022-08-17T06:47:12.853Z,49.11
2022-08-17T06:49:47.853Z,48.75
2022-08-17T06:52:45.557Z,48.39
2022-08-17T06:55:22.458Z,48.23
2022-08-17T06:58:00.715Z,48.55
2022-08-17T07:00:40.968Z,48.64
2022-08-17T07:03:17.176Z,48.08
2022-08-17T07:05:52.024Z,47.63
2022-08-17T07:08:34.888Z,47.48
2022-08-17T07:11:11.193Z,47.27
2022-08-17T07:13:51.579Z,47.06
2022-08-17T07:16:24.033Z,47.09
2022-08-17T07:18:57.551Z,46.69
2022-08-17T07:21:33.281Z,46.44
2022-08-17T07:24:11.037Z,46.42
2022-08-17T07:27:09.558Z,45.91
2022-08-17T07:29:56.774Z,45.82
2022-08-17T07:32:32.827Z,45.56
2022-08-17T07:35:13.116Z,44.95
2022-08-17T07:37:55.868Z,44.68
2022-08-17T07:40:33.581Z,44.57
2022-08-17T07:43:22.310Z,44.27
2022-08-17T07:46:23.769Z,44.04
2022-08-17T07:48:55.988Z,43.82
2022-08-17T07:51:36.652Z,43.60
2022-08-17T07:54:32.096Z,43.17
2022-08-17T07:57:06.579Z,43.08
2022-08-17T07:59:43.209Z,42.72
2022-08-17T08:02:31.813Z,42.32
2022-08-17T08:05:10.123Z,42.50
2022-08-17T08:07:45.169Z,42.28
2022-08-17T08:10:29.550Z,42.18
2022-08-17T08:13:14.182Z,42.05
2022-08-17T08:15:53.902Z,41.77
2022-08-17T08:18:54.690Z,41.63
2022-08-17T08:21:28.529Z,41.34
2022-08-17T08:24:04.236Z,41.14
2022-08-17T08:26:39.164Z,41.00
2022-08-17T08:29:15.407Z,40.72
2022-08-17T08:31:57.819Z,40.79
2022-08-17T08:34:58.894Z,40.58
2022-08-17T08:37:35.615Z,40.01
2022-08-17T08:40:13.438Z,40.22
2022-08-17T08:42:47.557Z,39.88
2022-08-17T08:45:25.745Z,39.59
2022-08-17T08:48:05.980Z,39.61
2022-08-17T08:51:00.091Z,39.32
2022-08-17T08:53:42.680Z,39.42
2022-08-17T08:56:14.157Z,39.20
2022-08-17T08:58:49.584Z,38.71
2022-08-17T09:01:23.100Z,38.50
2022-08-17T09:04:25.129Z,38.14
2022-08-17T09:07:08.991Z,37.71
2022-08-17T09:09:47.992Z,37.31
2022-08-17T09:12:22.698Z,37.38
2022-08-17T09:14:59.702Z,37.13
2022-08-17T09:17:33.834Z,37.09
2022-08-17T09:20:11.520Z,36.76
2022-08-17T09:23:08.785Z,36.33
2022-08-17T09:25:50.083Z,36.09
2022-08-17T09:28:28.038Z,35.40
2022-08-17T09:31:04.403Z,35.09
2022-08-17T09:33:41.320Z,34.98
2022-08-17T09:36:15.950Z,34.68
2022-08-17T09:38:51.963Z,34.37
2022-08-17T09:41:27.442Z,34.10
2022-08-17T09:44:01.957Z,33.73
2022-08-17T09:46:39.080Z,33.44
2022-08-17T09:49:15.103Z,33.19
2022-08-17T09:51:51.599Z,32.83
2022-08-17T09:54:42.524Z,32.61
2022-08-17T09:57:32.683Z,32.34
2022-08-17T10:00:12.129Z,32.12
2022-08-17T10:02:50.812Z,31.40
2022-08-17T10:05:25.587Z,31.57
2022-08-17T10:08:00.353Z,31.29
2022-08-17T10:10:33.120Z,30.85
2022-08-17T10:13:09.707Z,30.27
2022-08-17T10:15:50.423Z,30.19
2022-08-17T10:18:31.916Z,30.09
2022-08-17T10:21:24.313Z,29.82
2022-08-17T10:24:16.592Z,29.50
2022-08-17T10:26:56.215Z,29.45
2022-08-17T10:29:46.199Z,28.99
2022-08-17T10:32:35.317Z,29.02
2022-08-17T10:35:19.348Z,28.72
2022-08-17T10:37:59.417Z,28.68
2022-08-17T10:40:38.999Z,28.19
2022-08-17T10:43:18.687Z,27.88
2022-08-17T10:46:30.357Z,27.04
2022-08-17T10:48:44.710Z,27.20
2022-08-17T10:51:36.580Z,27.22
2022-08-17T10:54:14.733Z,27.21
2022-08-17T10:56:51.599Z,27.02
2022-08-17T10:59:59.088Z,26.83
2022-08-17T11:02:37.803Z,26.69
2022-08-17T11:05:23.459Z,26.31
2022-08-17T11:08:01.830Z,26.03
2022-08-17T11:10:42.428Z,25.99
2022-08-17T11:13:19.001Z,25.76
2022-08-17T11:15:59.425Z,25.40
2022-08-17T11:18:46.998Z,25.42
2022-08-17T11:21:37.849Z,25.07
2022-08-17T11:24:19.505Z,24.75
2022-08-17T11:27:04.785Z,24.52
2022-08-17T11:29:39.116Z,24.41
2022-08-17T11:32:13.971Z,24.51
2022-08-17T11:35:00.841Z,24.17
2022-08-17T11:37:41.978Z,24.11
2022-08-17T11:40:27.834Z,23.87
2022-08-17T11:43:07.943Z,23.58
2022-08-17T11:45:55.712Z,23.63
2022-08-17T11:48:46.433Z,23.35
2022-08-17T11:51:41.623Z,23.48
2022-08-17T11:54:32.146Z,23.38
2022-08-17T11:57:24.069Z,23.12
2022-08-17T11:59:59.050Z,22.72
2022-08-17T12:02:47.899Z,22.49
2022-08-17T12:05:37.096Z,22.44
2022-08-17T12:08:20.276Z,22.37
2022-08-17T12:11:02.702Z,22.33
2022-08-17T12:13:39.969Z,22.31
2022-08-17T12:16:14.018Z,22.22
2022-08-17T12:18:54.646Z,22.00
2022-08-17T12:21:31.381Z,21.73
2022-08-17T12:24:04.801Z,21.78
2022-08-17T12:26:41.015Z,21.77
2022-08-17T12:29:35.813Z,21.77
2022-08-17T12:32:17.868Z,21.59
2022-08-17T12:34:53.179Z,21.53
2022-08-17T12:37:29.902Z,21.67
2022-08-17T12:40:05.794Z,21.65
2022-08-17T12:42:41.826Z,21.33
2022-08-17T12:45:24.134Z,21.13
2022-08-17T12:48:07.816Z,20.88
2022-08-17T12:50:41.118Z,20.76
2022-08-17T12:53:16.061Z,20.63
2022-08-17T12:55:49.023Z,20.54
2022-08-17T12:58:25.385Z,20.82
2022-08-17T13:01:01.182Z,20.73
2022-08-17T13:03:36.505Z,20.46
2022-08-17T13:06:10.285Z,20.71
2022-08-17T13:08:43.290Z,20.73
2022-08-17T13:11:23.449Z,20.39
2022-08-17T13:13:57.302Z,20.53
2022-08-17T13:16:29.680Z,20.56
2022-08-17T13:19:16.655Z,20.70
2022-08-17T13:21:50.623Z,20.58
2022-08-17T13:24:26.606Z,20.67
2022-08-17T13:27:08.296Z,20.77
2022-08-17T13:29:51.628Z,20.40
2022-08-17T13:32:36.030Z,20.20
2022-08-17T13:35:29.540Z,20.17
2022-08-17T13:38:09.716Z,20.18
2022-08-17T13:40:43.249Z,20.36
2022-08-17T13:43:25.571Z,20.67
2022-08-17T13:45:57.593Z,20.63
2022-08-17T13:48:31.823Z,20.50
2022-08-17T13:51:08.039Z,20.65
2022-08-17T13:53:55.572Z,21.07
2022-08-17T13:56:45.268Z,21.70
2022-08-17T13:59:52.714Z,21.82
2022-08-17T14:02:20.371Z,22.05
2022-08-17T14:04:53.834Z,22.28
2022-08-17T14:07:30.910Z,21.96
2022-08-17T14:10:02.701Z,22.27
2022-08-17T14:12:36.223Z,22.05
2022-08-17T14:15:15.127Z,22.25
2022-08-17T14:17:50.660Z,22.62
2022-08-17T14:20:24.795Z,22.78
2022-08-17T14:23:04.436Z,22.93
2022-08-17T14:25:42.073Z,22.77
2022-08-17T14:28:15.312Z,22.89
2022-08-17T14:30:57.633Z,22.98
2022-08-17T14:33:31.275Z,23.17
2022-08-17T14:36:02.463Z,23.22
2022-08-17T14:38:38.006Z,23.35
2022-08-17T14:41:21.864Z,23.62
2022-08-17T14:44:01.070Z,23.48
2022-08-17T14:46:35.153Z,23.63
2022-08-17T14:49:09.350Z,23.54
2022-08-17T14:51:45.619Z,23.64
2022-08-17T14:54:33.168Z,23.66
2022-08-17T14:57:22.978Z,23.89
2022-08-17T15:00:03.131Z,23.95
2022-08-17T15:02:36.729Z,23.90
2022-08-17T15:05:09.984Z,23.87
2022-08-17T15:07:46.095Z,23.95
2022-08-17T15:10:17.350Z,23.97
2022-08-17T15:12:50.178Z,23.97
2022-08-17T15:15:24.595Z,24.07
2022-08-17T15:17:55.897Z,23.98
2022-08-17T15:20:32.714Z,23.92
2022-08-17T15:23:09.913Z,23.99
2022-08-17T15:25:43.881Z,24.07
2022-08-17T15:28:15.585Z,24.31
2022-08-17T15:30:48.596Z,24.29
2022-08-17T15:33:23.154Z,24.30
2022-08-17T15:35:58.098Z,24.40
2022-08-17T15:38:36.998Z,24.38
2022-08-17T15:41:10.740Z,24.43
2022-08-17T15:43:44.670Z,24.45
2022-08-17T15:46:17.481Z,24.44
2022-08-17T15:48:58.345Z,24.33
2022-08-17T15:51:37.011Z,24.46
2022-08-17T15:54:22.909Z,24.54
2022-08-17T15:56:54.410Z,24.62
2022-08-17T15:59:25.155Z,24.67
2022-08-17T16:03:01.316Z,24.62
2022-08-17T16:04:59.228Z,24.50
2022-08-17T16:07:31.861Z,24.51
2022-08-17T16:10:04.914Z,24.35
2022-08-17T16:12:36.881Z,24.35
2022-08-17T16:15:12.234Z,24.48
2022-08-17T16:17:43.135Z,24.54
2022-08-17T16:20:21.191Z,24.58
2022-08-17T16:22:55.455Z,24.58
2022-08-17T16:25:38.405Z,24.68
2022-08-17T16:28:20.366Z,24.62
2022-08-17T16:30:55.003Z,24.78
2022-08-17T16:33:30.201Z,24.86
2022-08-17T16:36:09.753Z,24.95
2022-08-17T16:38:44.871Z,25.09
2022-08-17T16:41:36.250Z,25.32
2022-08-17T16:44:10.857Z,25.53
2022-08-17T16:46:56.797Z,25.47
2022-08-17T16:49:37.118Z,25.75
2022-08-17T16:52:11.368Z,25.69
2022-08-17T16:54:47.017Z,25.90
2022-08-17T16:57:21.227Z,26.25
2022-08-17T16:59:53.445Z,26.50
2022-08-17T17:02:32.241Z,26.61
2022-08-17T17:05:07.602Z,26.66
2022-08-17T17:07:58.084Z,27.05
2022-08-17T17:10:41.189Z,27.04
2022-08-17T17:13:13.994Z,27.08
2022-08-17T17:15:52.943Z,26.94
2022-08-17T17:18:27.764Z,27.07
2022-08-17T17:21:14.789Z,27.44
2022-08-17T17:23:51.524Z,27.42
2022-08-17T17:26:39.157Z,27.43
2022-08-17T17:29:16.526Z,27.94
2022-08-17T17:31:51.374Z,27.59
2022-08-17T17:34:25.850Z,27.74
2022-08-17T17:37:02.659Z,27.99
2022-08-17T17:39:38.681Z,28.17
2022-08-17T17:42:20.335Z,28.15
2022-08-17T17:45:03.649Z,28.24
2022-08-17T17:47:37.255Z,28.65
2022-08-17T17:50:18.677Z,28.64
2022-08-17T17:53:00.210Z,28.94
2022-08-17T17:55:36.723Z,28.96
2022-08-17T17:58:21.889Z,29.00
2022-08-17T18:01:05.486Z,29.31
2022-08-17T18:03:39.902Z,29.35
2022-08-17T18:06:21.504Z,29.62
2022-08-17T18:08:59.531Z,29.55
2022-08-17T18:11:52.536Z,29.88
2022-08-17T18:14:27.597Z,29.76
2022-08-17T18:17:08.075Z,29.96
2022-08-17T18:19:41.646Z,30.06
2022-08-17T18:22:14.805Z,30.25
2022-08-17T18:24:46.262Z,30.38
2022-08-17T18:27:35.032Z,30.63
2022-08-17T18:30:23.617Z,30.66
2022-08-17T18:32:55.962Z,30.67
2022-08-17T18:35:33.049Z,31.03
2022-08-17T18:38:25.637Z,31.01
2022-08-17T18:41:05.359Z,31.37
2022-08-17T18:43:53.839Z,31.36
2022-08-17T18:46:35.213Z,31.56
2022-08-17T18:49:11.228Z,31.59
2022-08-17T18:51:56.241Z,31.81
2022-08-17T18:54:27.285Z,31.71
2022-08-17T18:57:00.271Z,31.93
2022-08-17T18:59:36.098Z,32.09
2022-08-17T19:02:36.123Z,32.24
2022-08-17T19:05:14.101Z,32.29
2022-08-17T19:07:48.274Z,32.26
2022-08-17T19:10:23.555Z,32.55
2022-08-17T19:13:00.442Z,32.63
2022-08-17T19:15:37.837Z,32.77
2022-08-17T19:18:15.738Z,32.79
2022-08-17T19:20:48.324Z,32.88
2022-08-17T19:23:22.756Z,32.79
2022-08-17T19:25:58.782Z,33.14
2022-08-17T19:28:34.116Z,33.23
2022-08-17T19:31:08.073Z,33.18
2022-08-17T19:33:38.981Z,33.22
2022-08-17T19:36:22.496Z,33.24
2022-08-17T19:39:06.811Z,33.39
2022-08-17T19:41:43.186Z,33.61
2022-08-17T19:44:27.145Z,33.71
2022-08-17T19:47:06.023Z,33.65
2022-08-17T19:49:40.853Z,33.73
2022-08-17T19:52:18.303Z,33.87
2022-08-17T19:55:03.248Z,33.89
2022-08-17T19:57:45.663Z,33.83
2022-08-17T20:00:20.018Z,33.88
2022-08-17T20:03:06.451Z,33.87
2022-08-17T20:06:08.481Z,33.96
2022-08-17T20:08:35.663Z,34.09
2022-08-17T20:11:10.843Z,34.14
2022-08-17T20:13:44.925Z,34.17
2022-08-17T20:16:20.307Z,34.20
2022-08-17T20:18:56.226Z,34.22
2022-08-17T20:21:38.391Z,34.41
2022-08-17T20:24:16.249Z,34.59
2022-08-17T20:26:55.366Z,34.61
2022-08-17T20:29:40.190Z,34.70
2022-08-17T20:32:23.097Z,34.95
2022-08-17T20:35:07.491Z,35.18
2022-08-17T20:37:43.332Z,35.48
2022-08-17T20:40:21.706Z,35.47
2022-08-17T20:42:53.602Z,35.66
2022-08-17T20:45:43.192Z,35.57
2022-08-17T20:48:36.458Z,35.73
2022-08-17T20:51:21.825Z,35.95
2022-08-17T20:54:26.919Z,35.68
2022-08-17T20:57:00.632Z,35.40
2022-08-17T20:59:51.180Z,35.50
2022-08-17T21:02:27.028Z,35.59
2022-08-17T21:05:15.724Z,35.67
2022-08-17T21:07:55.988Z,35.85
2022-08-17T21:10:44.150Z,35.88
2022-08-17T21:13:37.973Z,36.23
2022-08-17T21:16:16.010Z,36.28
2022-08-17T21:18:48.475Z,36.50
2022-08-17T21:21:24.123Z,36.41
2022-08-17T21:24:19.649Z,36.48
2022-08-17T21:26:54.912Z,36.23
2022-08-17T21:29:31.086Z,36.42
2022-08-17T21:32:19.096Z,36.50
2022-08-17T21:35:17.707Z,36.66
2022-08-17T21:37:50.570Z,36.83
2022-08-17T21:40:24.161Z,36.97
2022-08-17T21:42:57.764Z,36.87
2022-08-17T21:45:35.246Z,36.91
2022-08-17T21:48:15.628Z,36.79
2022-08-17T21:50:49.605Z,36.93
2022-08-17T21:53:33.180Z,37.27
2022-08-17T21:56:08.654Z,37.31
2022-08-17T21:58:48.410Z,37.50
2022-08-17T22:01:27.276Z,37.81
2022-08-17T22:04:00.201Z,38.04
2022-08-17T22:06:32.135Z,38.20
2022-08-17T22:09:05.236Z,38.05
2022-08-17T22:11:52.870Z,38.29
2022-08-17T22:14:53.004Z,38.39
2022-08-17T22:17:24.011Z,38.25
2022-08-17T22:19:58.372Z,38.55
2022-08-17T22:22:37.710Z,38.85
2022-08-17T22:25:10.999Z,39.03
2022-08-17T22:27:50.274Z,39.20
2022-08-17T22:30:24.017Z,39.44
2022-08-17T22:32:55.993Z,39.38
2022-08-17T22:35:33.232Z,39.72
2022-08-17T22:38:23.233Z,39.77
2022-08-17T22:40:54.666Z,39.94
2022-08-17T22:43:27.473Z,40.01
2022-08-17T22:45:59.354Z,40.28
2022-08-17T22:48:31.419Z,40.22
2022-08-17T22:51:12.434Z,40.33
2022-08-17T22:54:08.235Z,40.57
2022-08-17T22:56:59.773Z,40.46
2022-08-17T22:59:41.971Z,40.54
2022-08-17T23:02:28.156Z,40.77
2022-08-17T23:05:19.167Z,40.88
2022-08-17T23:07:54.856Z,40.92
2022-08-17T23:10:25.666Z,41.09
2022-08-17T23:13:01.617Z,41.14
2022-08-17T23:15:34.712Z,41.24
2022-08-17T23:18:13.209Z,41.25
2022-08-17T23:20:44.244Z,41.17
2022-08-17T23:23:23.690Z,41.47
2022-08-17T23:25:56.955Z,41.55
2022-08-17T23:28:31.344Z,41.50
2022-08-17T23:31:07.540Z,41.56
2022-08-17T23:33:41.975Z,41.72
2022-08-17T23:36:20.126Z,41.73
2022-08-17T23:38:51.075Z,41.75
2022-08-17T23:41:22.272Z,41.56
2022-08-17T23:43:55.258Z,41.80
2022-08-17T23:46:34.691Z,41.80
2022-08-17T23:49:17.075Z,41.93
2022-08-17T23:51:56.785Z,41.95
2022-08-17T23:54:30.356Z,41.86
2022-08-17T23:57:07.592Z,41.99
2022-08-17T23:59:44.099Z,41.86
